createdAt,value
2018-06-10T00:01:05.177Z,20.87
2018-06-10T00:03:33.064Z,21.27
2018-06-10T00:06:00.894Z,21.35
2018-06-10T00:08:28.736Z,22.93
2018-06-10T00:10:56.612Z,23.05
2018-06-10T00:13:24.352Z,22.97
2018-06-10T00:15:52.133Z,23.30
2018-06-10T00:18:19.993Z,22.67
2018-06-10T00:20:47.759Z,23.47
2018-06-10T00:23:15.559Z,25.60
2018-06-10T00:25:43.438Z,25.67
2018-06-10T00:28:11.303Z,25.17
2018-06-10T00:30:39.134Z,25.10
2018-06-10T00:33:06.899Z,27.57
2018-06-10T00:35:34.737Z,27.27
2018-06-10T00:38:02.607Z,27.57
2018-06-10T00:40:30.548Z,26.40
2018-06-10T00:42:58.411Z,25.90
2018-06-10T00:45:26.286Z,27.73
2018-06-10T00:47:54.129Z,27.33
2018-06-10T00:50:21.953Z,25.43
2018-06-10T00:52:49.875Z,28.23
2018-06-10T00:55:17.717Z,31.07
2018-06-10T00:57:45.561Z,27.57
2018-06-10T01:00:13.413Z,26.27
2018-06-10T01:02:41.226Z,24.20
2018-06-10T01:05:09.114Z,26.07
2018-06-10T01:07:36.914Z,24.63
2018-06-10T01:10:04.799Z,23.97
2018-06-10T01:12:32.559Z,22.33
2018-06-10T01:15:00.463Z,22.83
2018-06-10T01:17:28.272Z,23.67
2018-06-10T01:19:56.114Z,24.73
2018-06-10T01:22:23.986Z,24.70
2018-06-10T01:24:51.792Z,24.90
2018-06-10T01:27:19.641Z,24.43
2018-06-10T01:29:47.453Z,25.23
2018-06-10T01:32:15.360Z,24.27
2018-06-10T01:34:43.204Z,22.07
2018-06-10T01:37:11.037Z,21.33
2018-06-10T01:39:38.908Z,22.10
2018-06-10T01:42:06.715Z,21.83
2018-06-10T01:44:34.533Z,19.83
2018-06-10T01:47:02.385Z,20.00
2018-06-10T01:49:30.217Z,21.57
2018-06-10T01:51:58.006Z,21.83
2018-06-10T01:54:25.853Z,19.20
2018-06-10T01:56:53.684Z,20.53
2018-06-10T01:59:21.574Z,19.40
2018-06-10T02:01:49.391Z,19.92
2018-06-10T02:04:17.197Z,20.03
2018-06-10T02:06:45.109Z,19.03
2018-06-10T02:09:12.934Z,19.40
2018-06-10T02:11:40.713Z,19.23
2018-06-10T02:14:08.563Z,18.10
2018-06-10T02:16:36.375Z,18.73
2018-06-10T02:19:04.321Z,18.70
2018-06-10T02:21:32.132Z,18.37
2018-06-10T02:23:59.953Z,18.47
2018-06-10T02:26:27.802Z,18.67
2018-06-10T02:28:55.641Z,18.48
2018-06-10T02:31:23.490Z,17.80
2018-06-10T02:33:51.325Z,18.62
2018-06-10T02:36:19.184Z,17.92
2018-06-10T02:38:46.985Z,17.47
2018-06-10T02:41:14.797Z,17.30
2018-06-10T02:43:42.727Z,17.10
2018-06-10T02:46:10.609Z,17.42
2018-06-10T02:48:38.456Z,17.15
2018-06-10T02:51:06.353Z,16.65
2018-06-10T02:53:35.260Z,15.93
2018-06-10T02:56:03.193Z,15.13
2018-06-10T02:58:31.040Z,16.67
2018-06-10T03:00:58.937Z,15.93
2018-06-10T03:03:26.792Z,15.43
2018-06-10T03:05:54.612Z,14.90
2018-06-10T03:08:22.417Z,15.30
2018-06-10T03:10:50.299Z,15.38
2018-06-10T03:13:18.205Z,15.98
2018-06-10T03:15:45.978Z,15.43
2018-06-10T03:18:13.725Z,15.13
2018-06-10T03:20:41.600Z,13.28
2018-06-10T03:23:09.480Z,14.95
2018-06-10T03:25:37.294Z,12.93
2018-06-10T03:28:05.079Z,13.45
2018-06-10T03:30:33.018Z,14.00
2018-06-10T03:33:00.852Z,13.50
2018-06-10T03:35:28.708Z,13.90
2018-06-10T03:37:56.506Z,13.60
2018-06-10T03:40:24.317Z,13.28
2018-06-10T03:42:52.122Z,12.58
2018-06-10T03:45:19.977Z,12.65
2018-06-10T03:47:47.781Z,13.00
2018-06-10T03:50:15.617Z,12.60
2018-06-10T03:52:43.467Z,12.60
2018-06-10T03:55:11.268Z,12.20
2018-06-10T03:57:39.058Z,11.97
2018-06-10T04:00:06.942Z,12.20
2018-06-10T04:02:34.753Z,11.30
2018-06-10T04:05:02.782Z,10.95
2018-06-10T04:07:30.566Z,11.22
2018-06-10T04:09:58.413Z,11.35
2018-06-10T04:12:26.316Z,10.55
2018-06-10T04:14:54.117Z,10.50
2018-06-10T04:17:21.928Z,10.98
2018-06-10T04:19:49.749Z,10.40
2018-06-10T04:22:17.588Z,10.45
2018-06-10T04:24:45.413Z,10.63
2018-06-10T04:27:13.206Z,10.00
2018-06-10T04:29:40.968Z,9.80
2018-06-10T04:32:08.835Z,9.90
2018-06-10T04:34:36.661Z,9.70
2018-06-10T04:37:04.472Z,9.98
2018-06-10T04:39:32.312Z,9.40
2018-06-10T04:42:00.048Z,9.93
2018-06-10T04:44:27.785Z,9.95
2018-06-10T04:46:55.661Z,9.50
2018-06-10T04:49:23.383Z,10.05
2018-06-10T04:51:51.131Z,9.28
2018-06-10T04:54:18.957Z,9.90
2018-06-10T04:56:46.809Z,10.08
2018-06-10T04:59:14.653Z,9.40
2018-06-10T05:01:42.456Z,9.65
2018-06-10T05:04:10.301Z,9.98
2018-06-10T05:06:38.118Z,9.63
2018-06-10T05:09:06.458Z,10.10
2018-06-10T05:11:34.250Z,10.08
2018-06-10T05:14:02.075Z,9.85
2018-06-10T05:16:29.887Z,9.83
2018-06-10T05:18:57.652Z,10.05
2018-06-10T05:21:25.372Z,9.85
2018-06-10T05:23:53.115Z,9.58
2018-06-10T05:26:20.869Z,9.65
2018-06-10T05:28:48.604Z,10.38
2018-06-10T05:31:16.365Z,10.08
2018-06-10T05:33:44.132Z,8.88
2018-06-10T05:36:11.981Z,9.30
2018-06-10T05:38:39.824Z,9.38
2018-06-10T05:41:07.622Z,8.83
2018-06-10T05:43:35.445Z,9.43
2018-06-10T05:46:03.267Z,9.40
2018-06-10T05:48:31.085Z,8.80
2018-06-10T05:50:58.880Z,11.85
2018-06-10T05:53:26.872Z,9.15
2018-06-10T05:55:54.637Z,8.98
2018-06-10T05:58:22.481Z,9.18
2018-06-10T06:00:50.269Z,8.65
2018-06-10T06:03:18.048Z,8.48
2018-06-10T06:05:45.840Z,9.55
2018-06-10T06:08:13.683Z,8.83
2018-06-10T06:10:41.488Z,9.65
2018-06-10T06:13:09.344Z,9.40
2018-06-10T06:15:37.270Z,9.60
2018-06-10T06:18:05.184Z,9.38
2018-06-10T06:20:32.927Z,9.25
2018-06-10T06:23:00.708Z,9.03
2018-06-10T06:25:28.496Z,9.08
2018-06-10T06:27:56.260Z,8.45
2018-06-10T06:30:24.106Z,8.80
2018-06-10T06:32:51.884Z,8.60
2018-06-10T06:35:19.695Z,8.55
2018-06-10T06:37:47.480Z,9.35
2018-06-10T06:40:15.197Z,8.73
2018-06-10T06:42:43.009Z,9.98
2018-06-10T06:45:10.837Z,9.55
2018-06-10T06:47:38.657Z,8.50
2018-06-10T06:50:06.448Z,8.83
2018-06-10T06:52:34.273Z,7.95
2018-06-10T06:55:02.036Z,8.25
2018-06-10T06:57:29.888Z,8.08
2018-06-10T06:59:57.653Z,8.20
2018-06-10T07:02:25.380Z,7.67
2018-06-10T07:04:53.246Z,7.90
2018-06-10T07:07:21.032Z,7.05
2018-06-10T07:09:48.814Z,8.08
2018-06-10T07:12:16.596Z,8.15
2018-06-10T07:14:44.388Z,8.25
2018-06-10T07:17:12.156Z,8.28
2018-06-10T07:19:39.888Z,7.62
2018-06-10T07:22:07.727Z,7.60
2018-06-10T07:24:35.580Z,7.25
2018-06-10T07:27:03.340Z,7.60
2018-06-10T07:29:31.178Z,7.12
2018-06-10T07:31:59.000Z,7.35
2018-06-10T07:34:26.731Z,6.87
2018-06-10T07:36:54.479Z,7.42
2018-06-10T07:39:22.236Z,7.60
2018-06-10T07:41:50.079Z,7.72
2018-06-10T07:44:17.841Z,7.85
2018-06-10T07:46:45.628Z,7.35
2018-06-10T07:49:13.415Z,7.70
2018-06-10T07:51:41.212Z,7.70
2018-06-10T07:54:09.035Z,7.87
2018-06-10T07:56:36.794Z,7.67
2018-06-10T07:59:04.672Z,7.55
2018-06-10T08:01:32.535Z,7.42
2018-06-10T08:04:00.341Z,7.05
2018-06-10T08:06:28.148Z,6.65
2018-06-10T08:08:55.868Z,7.00
2018-06-10T08:11:23.648Z,7.17
2018-06-10T08:13:51.383Z,7.17
2018-06-10T08:16:19.187Z,6.67
2018-06-10T08:18:47.098Z,6.90
2018-06-10T08:21:14.843Z,7.17
2018-06-10T08:23:42.627Z,7.65
2018-06-10T08:26:10.448Z,7.17
2018-06-10T08:28:38.217Z,7.60
2018-06-10T08:31:05.972Z,7.03
2018-06-10T08:33:33.687Z,7.62
2018-06-10T08:36:01.517Z,7.20
2018-06-10T08:38:29.271Z,7.17
2018-06-10T08:40:57.072Z,7.45
2018-06-10T08:43:24.848Z,7.00
2018-06-10T08:45:52.609Z,7.58
2018-06-10T08:48:20.417Z,7.72
2018-06-10T08:50:48.209Z,6.50
2018-06-10T08:53:16.020Z,7.70
2018-06-10T08:55:43.779Z,7.20
2018-06-10T08:58:11.579Z,7.67
2018-06-10T09:00:39.344Z,7.47
2018-06-10T09:03:07.237Z,7.62
2018-06-10T09:05:34.988Z,8.65
2018-06-10T09:08:02.861Z,9.33
2018-06-10T09:10:30.556Z,7.70
2018-06-10T09:12:58.344Z,8.20
2018-06-10T09:15:26.107Z,8.35
2018-06-10T09:17:53.880Z,8.43
2018-06-10T09:20:21.668Z,8.55
2018-06-10T09:22:49.443Z,8.60
2018-06-10T09:25:17.224Z,8.25
2018-06-10T09:27:48.761Z,8.55
2018-06-10T09:30:23.984Z,8.35
2018-06-10T09:32:51.672Z,8.83
2018-06-10T09:35:19.446Z,8.85
2018-06-10T09:37:51.269Z,8.85
2018-06-10T09:40:21.164Z,9.70
2018-06-10T09:43:14.276Z,8.63
2018-06-10T09:45:42.017Z,9.05
2018-06-10T09:48:09.761Z,9.10
2018-06-10T09:50:37.605Z,8.68
2018-06-10T09:53:05.401Z,8.63
2018-06-10T09:55:38.558Z,9.23
2018-06-10T09:58:06.260Z,8.60
2018-06-10T10:00:34.028Z,8.83
2018-06-10T10:03:01.814Z,8.85
2018-06-10T10:05:29.553Z,8.13
2018-06-10T10:07:57.344Z,8.23
2018-06-10T10:10:25.145Z,8.00
2018-06-10T10:12:52.961Z,8.13
2018-06-10T10:15:20.802Z,7.85
2018-06-10T10:17:48.721Z,6.55
2018-06-10T10:20:16.548Z,6.03
2018-06-10T10:22:51.839Z,5.50
2018-06-10T10:25:19.758Z,6.05
2018-06-10T10:27:47.764Z,6.20
2018-06-10T10:30:32.148Z,6.10
2018-06-10T10:33:00.036Z,6.10
2018-06-10T10:35:27.877Z,5.95
2018-06-10T10:50:01.218Z,6.10
2018-06-10T10:52:29.095Z,6.10
2018-06-10T10:54:56.940Z,6.12
2018-06-10T10:57:24.829Z,5.75
2018-06-10T10:59:52.717Z,6.05
2018-06-10T11:02:20.560Z,5.87
2018-06-10T11:04:48.377Z,6.45
2018-06-10T11:07:16.171Z,6.67
2018-06-10T11:09:44.113Z,6.37
2018-06-10T11:12:11.901Z,6.55
2018-06-10T11:14:39.689Z,6.70
2018-06-10T11:17:07.567Z,6.75
2018-06-10T11:19:35.369Z,7.30
2018-06-10T11:22:03.204Z,7.15
2018-06-10T11:27:30.742Z,6.55
2018-06-10T11:29:58.536Z,6.87
2018-06-10T11:32:26.361Z,7.17
2018-06-10T11:34:54.224Z,6.95
2018-06-10T11:37:22.075Z,7.08
2018-06-10T11:39:49.896Z,6.97
2018-06-10T11:42:17.813Z,7.22
2018-06-10T11:44:45.599Z,7.03
2018-06-10T11:47:13.420Z,6.50
2018-06-10T11:49:41.214Z,7.47
2018-06-10T11:52:09.067Z,7.58
2018-06-10T11:54:36.729Z,7.22
2018-06-10T11:57:04.558Z,7.50
2018-06-10T11:59:32.293Z,7.70
2018-06-10T12:02:00.095Z,8.23
2018-06-10T12:04:27.783Z,7.75
2018-06-10T12:06:55.543Z,7.75
2018-06-10T12:09:23.294Z,7.40
2018-06-10T12:11:51.087Z,7.12
2018-06-10T12:14:18.918Z,7.40
2018-06-10T12:16:46.722Z,7.50
2018-06-10T12:19:14.508Z,6.85
2018-06-10T12:21:42.322Z,7.15
2018-06-10T12:24:10.072Z,6.92
2018-06-10T12:26:37.877Z,6.83
2018-06-10T12:29:05.744Z,6.58
2018-06-10T12:31:33.599Z,7.15
2018-06-10T12:34:01.362Z,6.78
2018-06-10T12:36:29.285Z,7.30
2018-06-10T12:38:56.984Z,7.20
2018-06-10T12:41:24.794Z,6.85
2018-06-10T12:43:52.573Z,6.90
2018-06-10T12:46:20.773Z,7.03
2018-06-10T12:48:48.680Z,6.78
2018-06-10T12:51:16.505Z,6.58
2018-06-10T12:53:44.321Z,7.03
2018-06-10T12:56:12.128Z,6.97
2018-06-10T12:58:39.983Z,6.97
2018-06-10T13:01:07.761Z,7.10
2018-06-10T13:03:35.525Z,7.42
2018-06-10T13:06:03.332Z,7.20
2018-06-10T13:08:31.111Z,7.42
2018-06-10T13:10:58.897Z,7.37
2018-06-10T13:13:26.659Z,7.22
2018-06-10T13:15:54.436Z,7.92
2018-06-10T13:18:22.189Z,7.70
2018-06-10T13:20:49.949Z,8.20
2018-06-10T13:23:17.782Z,7.70
2018-06-10T13:25:45.585Z,8.20
2018-06-10T13:28:13.340Z,7.28
2018-06-10T13:30:41.125Z,7.72
2018-06-10T13:33:08.893Z,7.05
2018-06-10T13:35:36.725Z,7.55
2018-06-10T13:38:04.721Z,7.35
2018-06-10T13:40:32.425Z,7.25
2018-06-10T13:43:00.252Z,6.92
2018-06-10T13:45:28.050Z,6.78
2018-06-10T13:47:55.944Z,7.50
2018-06-10T13:50:23.752Z,7.30
2018-06-10T13:52:51.646Z,7.33
2018-06-10T13:55:19.491Z,7.12
2018-06-10T13:57:47.300Z,7.95
2018-06-10T14:00:15.136Z,8.33
2018-06-10T14:02:42.945Z,7.62
2018-06-10T14:05:10.768Z,8.30
2018-06-10T14:07:38.565Z,8.45
2018-06-10T14:10:06.365Z,8.25
2018-06-10T14:12:34.208Z,8.80
2018-06-10T14:15:02.006Z,9.20
2018-06-10T14:17:29.723Z,9.30
2018-06-10T14:19:57.472Z,8.90
2018-06-10T14:22:25.328Z,9.30
2018-06-10T14:24:53.164Z,9.35
2018-06-10T14:27:20.966Z,9.53
2018-06-10T14:29:48.743Z,9.90
2018-06-10T14:32:16.577Z,9.33
2018-06-10T14:34:44.400Z,9.98
2018-06-10T14:37:12.270Z,9.40
2018-06-10T14:39:40.085Z,9.28
2018-06-10T14:42:07.885Z,10.18
2018-06-10T14:44:35.658Z,9.05
2018-06-10T14:47:03.485Z,11.25
2018-06-10T14:49:31.395Z,9.85
2018-06-10T14:51:59.183Z,10.58
2018-06-10T14:54:26.985Z,10.43
2018-06-10T14:56:54.820Z,10.35
2018-06-10T14:59:22.652Z,10.00
2018-06-10T15:01:50.488Z,8.98
2018-06-10T15:04:18.260Z,8.60
2018-06-10T15:07:12.277Z,9.80
2018-06-10T15:09:40.177Z,9.23
2018-06-10T15:12:07.953Z,9.05
2018-06-10T15:14:35.776Z,10.18
2018-06-10T15:17:03.492Z,10.35
2018-06-10T15:19:31.292Z,9.75
2018-06-10T15:21:59.111Z,10.53
2018-06-10T15:24:26.981Z,10.20
2018-06-10T15:26:54.783Z,10.50
2018-06-10T15:29:22.530Z,9.90
2018-06-10T15:31:50.396Z,10.25
2018-06-10T15:34:18.199Z,10.45
2018-06-10T15:36:46.010Z,10.20
2018-06-10T15:39:13.853Z,10.70
2018-06-10T15:41:41.657Z,11.20
2018-06-10T15:44:09.501Z,10.85
2018-06-10T15:46:37.255Z,11.30
2018-06-10T15:49:05.096Z,10.85
2018-06-10T15:51:32.938Z,10.20
2018-06-10T15:54:00.705Z,10.00
2018-06-10T15:56:28.581Z,9.08
2018-06-10T15:58:56.378Z,9.63
2018-06-10T16:01:24.203Z,9.50
2018-06-10T16:03:51.948Z,9.40
2018-06-10T16:09:33.177Z,9.58
2018-06-10T16:15:06.314Z,10.13
2018-06-10T16:23:38.538Z,9.98
2018-06-10T16:26:06.348Z,9.85
2018-06-10T16:28:34.160Z,9.28
2018-06-10T16:31:02.075Z,9.58
2018-06-10T16:36:35.109Z,10.28
2018-06-10T16:39:04.564Z,9.43
2018-06-10T16:41:32.384Z,9.73
2018-06-10T16:44:00.105Z,11.45
2018-06-10T16:46:28.006Z,10.55
2018-06-10T16:48:55.804Z,10.03
2018-06-10T16:51:23.624Z,10.40
2018-06-10T16:53:51.578Z,10.35
2018-06-10T16:56:19.385Z,9.98
2018-06-10T16:58:47.145Z,10.45
2018-06-10T17:01:14.963Z,10.30
2018-06-10T17:03:42.737Z,10.78
2018-06-10T17:06:10.601Z,10.75
2018-06-10T17:08:38.376Z,10.70
2018-06-10T17:11:06.260Z,10.03
2018-06-10T17:13:34.107Z,10.15
2018-06-10T17:16:01.989Z,9.73
2018-06-10T17:18:29.724Z,7.50
2018-06-10T17:20:57.531Z,6.53
2018-06-10T17:23:25.304Z,5.70
2018-06-10T17:25:53.071Z,6.17
2018-06-10T17:28:20.895Z,6.10
2018-06-10T17:30:48.637Z,6.17
2018-06-10T17:33:16.463Z,6.10
2018-06-10T17:35:44.280Z,5.90
2018-06-10T17:38:12.024Z,6.50
2018-06-10T17:40:39.869Z,6.20
2018-06-10T17:43:07.715Z,5.95
2018-06-10T17:45:35.514Z,6.08
2018-06-10T17:48:03.349Z,5.30
2018-06-10T17:50:31.131Z,5.28
2018-06-10T17:52:59.013Z,5.90
2018-06-10T17:55:26.807Z,5.55
2018-06-10T17:57:54.584Z,5.78
2018-06-10T18:00:22.365Z,5.78
2018-06-10T18:02:50.184Z,6.20
2018-06-10T18:05:18.028Z,6.12
2018-06-10T18:07:45.854Z,10.48
2018-06-10T18:10:13.696Z,11.80
2018-06-10T18:12:41.480Z,12.30
2018-06-10T18:15:09.298Z,13.40
2018-06-10T18:17:37.087Z,13.80
2018-06-10T18:20:04.945Z,14.70
2018-06-10T18:22:32.720Z,16.20
2018-06-10T18:25:00.545Z,15.75
2018-06-10T18:27:28.352Z,16.62
2018-06-10T18:29:56.108Z,16.93
2018-06-10T18:32:23.918Z,17.02
2018-06-10T18:34:51.737Z,17.45
2018-06-10T18:37:19.669Z,19.05
2018-06-10T18:39:47.542Z,19.15
2018-06-10T18:42:15.327Z,19.85
2018-06-10T18:44:43.129Z,18.70
2018-06-10T18:47:10.895Z,18.25
2018-06-10T18:49:38.684Z,18.98
2018-06-10T18:52:06.496Z,18.87
2018-06-10T18:54:34.349Z,18.60
2018-06-10T18:57:02.153Z,18.62
2018-06-10T18:59:29.968Z,18.10
2018-06-10T19:01:57.813Z,19.90
2018-06-10T19:04:25.616Z,19.00
2018-06-10T19:06:57.340Z,19.82
2018-06-10T19:09:25.598Z,16.62
2018-06-10T19:11:53.498Z,17.57
2018-06-10T19:14:21.310Z,16.82
2018-06-10T19:16:49.157Z,16.07
2018-06-10T19:19:16.972Z,17.62
2018-06-10T19:21:44.937Z,16.52
2018-06-10T19:24:12.774Z,17.25
2018-06-10T19:26:40.608Z,16.73
2018-06-10T19:29:08.405Z,19.32
2018-06-10T19:31:36.168Z,16.93
2018-06-10T19:34:08.489Z,17.57
2018-06-10T19:36:39.517Z,17.00
2018-06-10T19:39:11.487Z,19.57
2018-06-10T19:41:39.365Z,20.92
2018-06-10T19:44:07.208Z,22.17
2018-06-10T19:49:47.432Z,23.10
2018-06-10T19:52:15.253Z,22.30
2018-06-10T19:54:43.116Z,20.90
2018-06-10T19:57:10.941Z,21.40
2018-06-10T19:59:38.804Z,20.82
2018-06-10T20:02:06.741Z,19.00
2018-06-10T20:04:34.588Z,18.00
2018-06-10T20:07:02.436Z,19.12
2018-06-10T20:09:43.782Z,19.10
2018-06-10T20:12:11.654Z,20.02
2018-06-10T20:14:58.721Z,20.55
2018-06-10T20:20:45.141Z,22.60
2018-06-10T20:23:19.281Z,21.35
2018-06-10T20:25:47.103Z,21.68
2018-06-10T20:28:15.086Z,22.87
2018-06-10T20:30:55.657Z,22.75
2018-06-10T20:33:23.473Z,22.32
2018-06-10T20:35:51.272Z,23.98
2018-06-10T20:38:30.202Z,23.92
2018-06-10T20:44:00.262Z,23.35
2018-06-10T20:46:28.225Z,24.37
2018-06-10T20:48:56.085Z,25.23
2018-06-10T20:51:23.930Z,25.15
2018-06-10T20:53:51.756Z,25.27
2018-06-10T20:56:25.488Z,27.65
2018-06-10T20:58:53.349Z,26.75
2018-06-10T21:01:21.212Z,29.90
2018-06-10T21:03:49.015Z,29.98
2018-06-10T21:06:16.955Z,32.17
2018-06-10T21:08:44.765Z,30.90
2018-06-10T21:11:12.577Z,30.23
2018-06-10T21:14:01.668Z,31.30
2018-06-10T21:16:29.510Z,30.08
2018-06-10T21:18:57.328Z,30.50
2018-06-10T21:21:25.178Z,31.70
2018-06-10T21:23:53.058Z,30.85
2018-06-10T21:26:20.835Z,32.83
2018-06-10T21:28:48.664Z,30.57
2018-06-10T21:31:16.533Z,31.00
2018-06-10T21:33:44.319Z,30.12
2018-06-10T21:36:12.257Z,29.90
2018-06-10T21:38:40.225Z,28.52
2018-06-10T21:41:08.077Z,28.87
2018-06-10T21:43:35.856Z,29.55
2018-06-10T21:49:24.583Z,32.05
2018-06-10T21:51:52.458Z,32.53
2018-06-10T21:54:20.321Z,32.23
2018-06-10T21:56:48.088Z,31.50
2018-06-10T21:59:15.962Z,33.25
2018-06-10T22:01:43.784Z,32.98
2018-06-10T22:04:11.584Z,32.42
2018-06-10T22:06:39.343Z,31.77
2018-06-10T22:09:07.573Z,31.00
2018-06-10T22:11:35.707Z,32.33
2018-06-10T22:14:03.553Z,31.25
2018-06-10T22:16:31.454Z,30.70
2018-06-10T22:19:22.889Z,31.68
2018-06-10T22:21:50.729Z,32.85
2018-06-10T22:24:18.624Z,33.67
2018-06-10T22:26:46.524Z,33.60
2018-06-10T22:29:14.366Z,32.20
2018-06-10T22:31:42.221Z,34.48
2018-06-10T22:34:10.118Z,34.00
2018-06-10T22:36:37.934Z,35.50
2018-06-10T22:39:07.676Z,36.33
2018-06-10T22:41:35.612Z,36.95
2018-06-10T22:44:03.425Z,38.50
2018-06-10T22:46:31.254Z,40.43
2018-06-10T22:48:59.153Z,41.50
2018-06-10T22:51:27.090Z,41.40
2018-06-10T22:54:12.315Z,40.13
2018-06-10T22:56:40.185Z,41.15
2018-06-10T22:59:08.025Z,40.20
2018-06-10T23:01:35.897Z,41.25
2018-06-10T23:04:03.709Z,37.73
2018-06-10T23:06:31.588Z,41.60
2018-06-10T23:08:59.477Z,39.57
2018-06-10T23:11:27.648Z,43.60
2018-06-10T23:13:55.468Z,44.03
2018-06-10T23:16:23.296Z,44.43
2018-06-10T23:18:51.166Z,40.73
2018-06-10T23:21:18.966Z,41.60
2018-06-10T23:23:47.670Z,41.33
2018-06-10T23:26:15.507Z,42.23
2018-06-10T23:28:43.451Z,43.50
2018-06-10T23:31:11.261Z,43.40
2018-06-10T23:33:39.108Z,45.57
2018-06-10T23:36:06.925Z,45.07
2018-06-10T23:38:34.774Z,49.00
2018-06-10T23:41:02.560Z,50.97
2018-06-10T23:43:30.428Z,50.43
2018-06-10T23:45:58.309Z,50.83
2018-06-10T23:48:26.124Z,51.97
2018-06-10T23:50:53.992Z,51.80
2018-06-10T23:53:21.748Z,53.03
2018-06-10T23:55:49.546Z,53.20
2018-06-10T23:58:17.321Z,51.43
